Time;durP1;ratioP1;P1;durP2;ratioP2;P2;SDS_P1;SDS_P2;PMS_P1;PMS_P2;Temp;Humidity;BMP_temperature;BMP_pressure;BME280_temperature;BME280_humidity;BME280_pressure;Samples;Min_cycle;Max_cycle;Signal;HPM_P1;HPM_P2
2021/08/20 00:00:26;;;;;;;12.38;9.40;;;15.60;99.90;;;;;;5096048;28;20050;-67
2021/08/20 00:02:51;;;;;;;9.20;8.27;;;15.50;99.90;;;;;;5096533;28;20055;-67
2021/08/20 00:05:18;;;;;;;10.52;9.43;;;15.50;99.90;;;;;;5094972;28;20120;-67
2021/08/20 00:07:43;;;;;;;15.88;10.90;;;15.50;99.90;;;;;;5095011;28;20462;-67
2021/08/20 00:10:10;;;;;;;13.30;10.32;;;15.50;99.90;;;;;;5095453;28;20552;-67
2021/08/20 00:12:36;;;;;;;11.82;10.30;;;15.50;99.90;;;;;;5094256;28;20397;-67
2021/08/20 00:15:03;;;;;;;13.23;10.77;;;15.50;99.90;;;;;;5097243;28;20041;-67
2021/08/20 00:17:29;;;;;;;12.30;9.88;;;15.50;99.90;;;;;;5092267;28;20032;-67
2021/08/20 00:19:54;;;;;;;12.13;10.18;;;15.50;99.90;;;;;;5093091;28;20454;-67
2021/08/20 00:22:21;;;;;;;12.27;11.02;;;15.50;99.90;;;;;;5097759;28;20374;-66
2021/08/20 00:24:48;;;;;;;12.73;11.18;;;15.50;99.90;;;;;;5097042;28;20131;-67
2021/08/20 00:27:14;;;;;;;11.80;10.38;;;15.50;99.90;;;;;;5095586;28;20040;-66
2021/08/20 00:29:40;;;;;;;16.45;11.23;;;15.40;99.90;;;;;;5094625;28;20046;-66
2021/08/20 00:32:06;;;;;;;18.25;13.45;;;15.50;99.90;;;;;;5096235;28;20048;-66
2021/08/20 00:34:32;;;;;;;16.20;13.23;;;15.40;99.90;;;;;;5095984;28;20039;-67
2021/08/20 00:36:57;;;;;;;16.17;13.45;;;15.40;99.90;;;;;;5097329;28;20039;-67
2021/08/20 00:39:23;;;;;;;18.50;13.50;;;15.40;99.90;;;;;;5098410;27;20077;-67
2021/08/20 00:41:50;;;;;;;18.45;15.35;;;15.30;99.90;;;;;;5100105;27;20118;-67
2021/08/20 00:44:16;;;;;;;16.65;14.80;;;15.30;99.90;;;;;;5098335;27;20051;-66
2021/08/20 00:46:43;;;;;;;21.15;15.75;;;15.30;99.90;;;;;;5100165;28;20122;-67
2021/08/20 00:49:15;;;;;;;17.05;13.55;;;15.40;99.90;;;;;;5096123;27;20205;-67
2021/08/20 00:51:42;;;;;;;25.38;16.02;;;15.30;99.90;;;;;;5101487;27;20035;-67
2021/08/20 00:54:11;;;;;;;18.52;15.13;;;15.30;99.90;;;;;;5101604;27;20097;-67
2021/08/20 00:56:39;;;;;;;19.05;16.90;;;15.30;99.90;;;;;;5096833;27;20543;-67
2021/08/20 00:59:05;;;;;;;17.20;15.18;;;15.30;99.90;;;;;;5112751;27;20501;-67
2021/08/20 01:01:31;;;;;;;26.40;18.02;;;15.30;99.90;;;;;;5097292;28;20040;-67
2021/08/20 01:03:57;;;;;;;23.60;18.35;;;15.30;99.90;;;;;;5100999;27;20115;-67
2021/08/20 01:06:27;;;;;;;32.65;17.50;;;15.30;99.90;;;;;;5097747;27;20066;-67
2021/08/20 01:08:53;;;;;;;22.77;18.65;;;15.20;99.90;;;;;;5097739;27;20505;-66
2021/08/20 01:11:21;;;;;;;26.65;18.73;;;15.20;99.90;;;;;;5097729;27;20040;-67
2021/08/20 01:13:46;;;;;;;23.83;19.17;;;15.20;99.90;;;;;;5096381;27;20031;-67
2021/08/20 01:16:12;;;;;;;22.48;19.15;;;15.10;99.90;;;;;;5098807;28;20043;-67
2021/08/20 01:18:41;;;;;;;21.17;18.20;;;15.10;99.90;;;;;;5097315;28;20038;-67
2021/08/20 01:21:21;;;;;;;23.05;18.50;;;15.20;99.90;;;;;;5100296;27;20431;-67
2021/08/20 01:23:52;;;;;;;19.90;17.73;;;15.10;99.90;;;;;;5097746;27;20047;-66
2021/08/20 01:26:18;;;;;;;26.60;20.55;;;15.00;99.90;;;;;;5100135;27;20039;-67
2021/08/20 01:28:44;;;;;;;28.05;21.65;;;15.00;99.90;;;;;;5097171;27;20533;-67
2021/08/20 01:31:12;;;;;;;33.25;25.15;;;15.00;99.90;;;;;;5096890;27;20046;-67
2021/08/20 01:33:39;;;;;;;27.17;21.65;;;15.10;99.90;;;;;;5099796;27;20039;-67
2021/08/20 01:36:05;;;;;;;26.90;23.52;;;15.10;99.90;;;;;;5096605;27;20032;-67
2021/08/20 01:38:34;;;;;;;28.17;23.67;;;15.00;99.90;;;;;;5096142;28;20028;-67
2021/08/20 01:40:59;;;;;;;28.17;22.02;;;15.00;99.90;;;;;;5097534;27;20063;-67
2021/08/20 01:43:25;;;;;;;26.83;22.95;;;15.00;99.90;;;;;;5099890;27;20067;-67
2021/08/20 01:45:51;;;;;;;27.60;23.42;;;15.00;99.90;;;;;;5099224;28;20057;-67
2021/08/20 01:48:18;;;;;;;27.30;22.63;;;15.00;99.90;;;;;;5096073;27;20039;-67
2021/08/20 01:50:44;;;;;;;30.50;24.40;;;14.90;99.90;;;;;;5100934;27;20048;-67
2021/08/20 01:53:13;;;;;;;29.70;24.33;;;14.90;99.90;;;;;;5097349;27;20036;-67
2021/08/20 01:55:44;;;;;;;33.25;23.85;;;15.00;99.90;;;;;;5096876;27;20039;-67
2021/08/20 01:58:10;;;;;;;34.95;24.83;;;14.90;99.90;;;;;;5097056;28;20043;-66
2021/08/20 02:00:37;;;;;;;29.20;23.98;;;14.90;99.90;;;;;;5100168;28;20039;-66
2021/08/20 02:03:02;;;;;;;32.80;26.25;;;14.90;99.90;;;;;;5097206;28;20035;-67
2021/08/20 02:05:28;;;;;;;33.38;25.60;;;14.90;99.90;;;;;;5098118;27;20381;-67
2021/08/20 02:07:54;;;;;;;35.03;26.60;;;14.90;99.90;;;;;;5101132;27;20044;-66
2021/08/20 02:10:21;;;;;;;32.30;26.10;;;14.80;99.90;;;;;;5097379;27;20044;-66
2021/08/20 02:12:46;;;;;;;32.78;25.65;;;14.90;99.90;;;;;;5098399;28;20101;-67
2021/08/20 02:15:12;;;;;;;35.92;27.10;;;14.90;99.90;;;;;;5098457;28;20428;-66
2021/08/20 02:17:38;;;;;;;29.75;25.98;;;14.90;99.90;;;;;;5098959;28;20066;-66
2021/08/20 02:20:05;;;;;;;35.70;27.85;;;14.80;99.90;;;;;;5094631;28;20039;-66
2021/08/20 02:22:30;;;;;;;28.35;25.10;;;14.80;99.90;;;;;;5098442;28;20089;-67
2021/08/20 02:24:56;;;;;;;33.78;25.80;;;14.80;99.90;;;;;;5096728;28;20514;-67
2021/08/20 02:27:22;;;;;;;29.77;23.85;;;14.80;99.90;;;;;;5096155;28;20512;-66
2021/08/20 02:29:48;;;;;;;30.98;25.95;;;14.80;99.90;;;;;;5103287;27;20112;-66
2021/08/20 02:32:14;;;;;;;33.45;25.35;;;14.70;99.90;;;;;;5099924;27;20055;-67
2021/08/20 02:34:40;;;;;;;38.33;27.30;;;14.70;99.90;;;;;;5104400;28;20322;-67
2021/08/20 02:37:05;;;;;;;30.27;24.15;;;14.70;99.90;;;;;;5103842;28;20055;-67
2021/08/20 02:39:33;;;;;;;36.85;24.02;;;14.70;99.90;;;;;;5103936;28;20039;-66
2021/08/20 02:41:59;;;;;;;33.30;25.92;;;14.70;99.90;;;;;;5108027;28;20043;-66
2021/08/20 02:44:25;;;;;;;31.05;24.50;;;14.70;99.90;;;;;;5105219;28;20067;-66
2021/08/20 02:46:50;;;;;;;31.30;25.25;;;14.60;99.90;;;;;;5104801;28;20510;-67
2021/08/20 02:49:16;;;;;;;33.47;26.45;;;14.60;99.90;;;;;;5104512;28;20042;-66
2021/08/20 02:51:42;;;;;;;34.50;26.60;;;14.60;99.90;;;;;;5104875;28;20401;-66
2021/08/20 02:54:07;;;;;;;35.97;25.85;;;14.50;99.90;;;;;;5105428;28;20048;-67
2021/08/20 02:56:34;;;;;;;33.58;26.67;;;14.50;99.90;;;;;;5104422;28;20055;-67
2021/08/20 02:59:00;;;;;;;35.15;24.48;;;14.50;99.90;;;;;;5105377;28;20102;-66
2021/08/20 03:01:25;;;;;;;36.92;24.95;;;14.50;99.90;;;;;;5105763;28;20071;-66
2021/08/20 03:03:52;;;;;;;32.20;26.48;;;14.50;99.90;;;;;;5103024;28;20051;-66
2021/08/20 03:06:18;;;;;;;31.83;25.25;;;14.50;99.90;;;;;;5101443;28;20039;-67
2021/08/20 03:08:45;;;;;;;33.10;25.92;;;14.50;99.90;;;;;;5100282;28;20059;-66
2021/08/20 03:11:10;;;;;;;39.10;28.63;;;14.50;99.90;;;;;;5104313;28;20051;-66
2021/08/20 03:13:36;;;;;;;36.90;26.85;;;14.50;99.90;;;;;;5105840;28;20473;-67
2021/08/20 03:16:02;;;;;;;39.58;26.98;;;14.50;99.90;;;;;;5104934;28;20040;-66
2021/08/20 03:18:27;;;;;;;34.38;26.73;;;14.60;99.90;;;;;;5103975;28;20054;-67
2021/08/20 03:20:53;;;;;;;32.83;25.42;;;14.50;99.90;;;;;;5102995;28;20040;-66
2021/08/20 03:23:19;;;;;;;39.97;27.95;;;14.50;99.90;;;;;;5108439;28;20039;-66
2021/08/20 03:25:45;;;;;;;29.55;25.35;;;14.50;99.90;;;;;;5106892;27;20042;-66
2021/08/20 03:28:10;;;;;;;33.25;27.15;;;14.40;99.90;;;;;;5106534;28;20032;-66
2021/08/20 03:30:37;;;;;;;36.25;28.17;;;14.40;99.90;;;;;;5104067;28;20044;-66
2021/08/20 03:33:03;;;;;;;38.00;28.23;;;14.50;99.90;;;;;;5102845;28;20140;-66
2021/08/20 03:35:29;;;;;;;43.15;28.25;;;14.40;99.90;;;;;;5103715;28;20036;-66
2021/08/20 03:37:58;;;;;;;41.00;31.55;;;14.40;99.90;;;;;;5106937;28;20493;-66
2021/08/20 03:40:26;;;;;;;42.15;30.90;;;14.50;99.90;;;;;;5103298;28;20451;-66
2021/08/20 03:42:55;;;;;;;37.90;30.85;;;14.50;99.90;;;;;;5104695;28;20413;-66
2021/08/20 03:45:21;;;;;;;36.53;29.40;;;14.50;99.90;;;;;;5103572;28;20036;-66
2021/08/20 03:47:48;;;;;;;37.97;29.67;;;14.50;99.90;;;;;;5103999;28;20400;-66
2021/08/20 03:50:14;;;;;;;42.42;30.52;;;14.50;99.90;;;;;;5102772;28;20043;-66
2021/08/20 03:52:40;;;;;;;40.30;30.20;;;14.50;99.90;;;;;;5103240;28;20122;-66
2021/08/20 03:55:06;;;;;;;41.63;31.15;;;14.50;99.90;;;;;;5103995;28;20138;-66
2021/08/20 03:57:32;;;;;;;42.15;31.85;;;14.50;99.90;;;;;;5101990;28;20040;-66
2021/08/20 03:59:57;;;;;;;44.97;33.28;;;14.50;99.90;;;;;;5104328;28;20034;-66
2021/08/20 04:02:23;;;;;;;40.00;30.45;;;14.50;99.90;;;;;;5105066;28;20477;-66
2021/08/20 04:04:49;;;;;;;43.20;32.90;;;14.50;99.90;;;;;;5103644;28;20493;-66
2021/08/20 04:07:19;;;;;;;41.92;30.80;;;14.50;99.90;;;;;;5128733;27;20163;-66
2021/08/20 04:09:46;;;;;;;38.42;30.50;;;14.50;99.90;;;;;;5104667;28;20094;-66
2021/08/20 04:12:13;;;;;;;38.33;29.50;;;14.50;99.90;;;;;;5105658;28;20127;-66
2021/08/20 04:14:38;;;;;;;44.53;33.20;;;14.40;99.90;;;;;;5110143;28;20044;-67
2021/08/20 04:17:04;;;;;;;45.03;30.48;;;14.50;99.90;;;;;;5106186;28;20041;-66
2021/08/20 04:19:30;;;;;;;40.55;31.48;;;14.50;99.90;;;;;;5108823;28;20032;-66
2021/08/20 04:21:55;;;;;;;43.58;31.30;;;14.50;99.90;;;;;;5107408;28;20040;-66
2021/08/20 04:24:21;;;;;;;35.45;30.33;;;14.50;99.90;;;;;;5105562;28;20035;-67
2021/08/20 04:26:47;;;;;;;36.78;29.73;;;14.60;99.90;;;;;;5103287;28;20032;-66
2021/08/20 04:29:13;;;;;;;45.28;31.20;;;14.50;99.90;;;;;;5099488;28;20035;-66
2021/08/20 04:31:39;;;;;;;36.42;29.83;;;14.50;99.90;;;;;;5099623;28;20039;-67
2021/08/20 04:34:05;;;;;;;40.35;31.55;;;14.50;99.90;;;;;;5097033;28;20545;-66
2021/08/20 04:36:30;;;;;;;48.10;32.10;;;14.50;99.90;;;;;;5101013;28;20042;-66
2021/08/20 04:39:01;;;;;;;34.20;27.92;;;14.60;99.90;;;;;;5102081;28;20514;-66
2021/08/20 04:41:27;;;;;;;38.05;28.60;;;14.50;99.90;;;;;;5101517;28;20071;-66
2021/08/20 04:43:57;;;;;;;42.55;31.10;;;14.50;99.90;;;;;;5099117;28;20035;-66
2021/08/20 04:46:24;;;;;;;36.60;30.60;;;14.50;99.90;;;;;;5099571;27;20115;-66
2021/08/20 04:48:49;;;;;;;48.60;32.10;;;14.50;99.90;;;;;;5100427;28;20048;-66
2021/08/20 04:51:18;;;;;;;42.17;29.70;;;14.50;99.90;;;;;;5101478;27;20035;-66
2021/08/20 04:53:43;;;;;;;34.28;28.55;;;14.50;99.90;;;;;;5098188;28;20048;-66
2021/08/20 04:56:09;;;;;;;38.80;30.40;;;14.60;99.90;;;;;;5101812;28;20497;-66
2021/08/20 04:58:35;;;;;;;36.50;28.60;;;14.60;99.90;;;;;;5103835;28;20043;-66
2021/08/20 05:01:02;;;;;;;41.90;27.80;;;14.60;99.90;;;;;;5102885;28;20051;-66
2021/08/20 05:03:31;;;;;;;31.60;28.13;;;14.70;99.90;;;;;;5101710;28;20055;-66
2021/08/20 05:05:57;;;;;;;35.95;27.55;;;14.60;99.90;;;;;;5103132;28;20470;-66
2021/08/20 05:08:23;;;;;;;36.90;28.02;;;14.60;99.90;;;;;;5102433;28;20829;-66
2021/08/20 05:10:50;;;;;;;34.95;27.95;;;14.70;99.90;;;;;;5101583;27;20048;-66
2021/08/20 05:13:16;;;;;;;31.80;27.20;;;14.70;99.90;;;;;;5101567;28;20530;-66
2021/08/20 05:15:41;;;;;;;34.83;27.30;;;14.70;99.90;;;;;;5097640;28;20040;-66
2021/08/20 05:18:07;;;;;;;40.35;27.13;;;14.80;99.90;;;;;;5101718;27;20047;-66
2021/08/20 05:20:33;;;;;;;32.10;25.92;;;14.90;99.90;;;;;;5100758;28;20070;-66
2021/08/20 05:23:02;;;;;;;27.33;24.60;;;15.10;99.90;;;;;;5102414;28;20062;-66
2021/08/20 05:25:34;;;;;;;25.10;22.60;;;15.20;99.90;;;;;;5101830;28;20481;-66
2021/08/20 05:27:59;;;;;;;26.20;21.38;;;15.50;99.90;;;;;;5101706;28;20047;-66
2021/08/20 05:30:25;;;;;;;22.67;19.60;;;15.80;99.90;;;;;;5096658;28;20443;-66
2021/08/20 05:32:51;;;;;;;22.13;19.52;;;16.20;99.90;;;;;;5095514;27;20043;-67
2021/08/20 05:35:17;;;;;;;23.63;19.63;;;16.70;99.90;;;;;;5093677;28;20063;-67
2021/08/20 05:37:43;;;;;;;20.05;17.80;;;16.80;99.90;;;;;;5098426;28;20093;-67
2021/08/20 05:40:10;;;;;;;23.77;19.55;;;16.80;99.90;;;;;;5095816;28;20089;-67
2021/08/20 05:42:36;;;;;;;24.77;20.65;;;16.60;99.90;;;;;;5098523;27;20126;-67
2021/08/20 05:45:02;;;;;;;22.05;19.35;;;16.40;99.90;;;;;;5102067;28;20469;-67
2021/08/20 05:47:28;;;;;;;23.40;20.58;;;16.30;99.90;;;;;;5096760;28;20398;-66
2021/08/20 05:49:54;;;;;;;29.50;18.77;;;16.20;99.90;;;;;;5097517;28;20035;-67
2021/08/20 05:52:20;;;;;;;18.90;16.90;;;16.80;99.90;;;;;;5093817;28;20044;-67
2021/08/20 05:54:45;;;;;;;18.45;16.65;;;17.60;99.90;;;;;;5096232;28;20059;-67
2021/08/20 05:57:11;;;;;;;19.27;17.30;;;18.20;99.90;;;;;;5096963;28;20040;-67
2021/08/20 05:59:37;;;;;;;21.45;19.17;;;18.30;99.90;;;;;;5100068;27;20032;-67
2021/08/20 06:02:03;;;;;;;20.70;18.55;;;18.30;99.90;;;;;;5102483;28;20066;-67
2021/08/20 06:04:33;;;;;;;23.92;18.55;;;18.10;99.90;;;;;;5100443;28;20040;-67
2021/08/20 06:06:58;;;;;;;21.20;18.83;;;17.80;99.90;;;;;;5097891;28;21652;-67
2021/08/20 06:09:24;;;;;;;21.77;19.70;;;17.80;99.90;;;;;;5100549;28;20770;-67
2021/08/20 06:11:51;;;;;;;23.52;19.23;;;17.70;99.90;;;;;;5100259;28;20067;-67
2021/08/20 06:14:24;;;;;;;22.33;19.80;;;17.50;99.90;;;;;;5099518;28;20112;-67
2021/08/20 06:16:54;;;;;;;26.35;20.70;;;17.30;99.90;;;;;;5099915;27;20178;-67
2021/08/20 06:19:22;;;;;;;22.88;20.17;;;17.10;99.90;;;;;;5099472;28;20031;-67
2021/08/20 06:21:48;;;;;;;24.40;21.25;;;17.00;99.90;;;;;;5097869;28;20063;-67
2021/08/20 06:24:14;;;;;;;23.10;20.48;;;16.80;99.90;;;;;;5098734;28;20450;-67
2021/08/20 06:26:39;;;;;;;23.60;20.58;;;16.70;99.90;;;;;;5098714;28;20081;-67
2021/08/20 06:29:05;;;;;;;25.65;21.80;;;16.70;99.90;;;;;;5098611;28;20048;-67
2021/08/20 06:31:31;;;;;;;24.65;22.05;;;16.50;99.90;;;;;;5099045;28;20048;-67
2021/08/20 06:33:58;;;;;;;27.58;21.05;;;16.50;99.90;;;;;;5095911;28;20044;-67
2021/08/20 06:36:25;;;;;;;24.77;22.00;;;16.40;99.90;;;;;;5095123;28;20070;-67
2021/08/20 06:38:51;;;;;;;26.20;23.58;;;16.40;99.90;;;;;;5092940;28;20039;-67
2021/08/20 06:41:16;;;;;;;27.17;22.40;;;16.40;99.90;;;;;;5094010;28;20040;-67
2021/08/20 06:43:42;;;;;;;30.23;24.35;;;16.40;99.90;;;;;;5093841;28;20046;-67
2021/08/20 06:46:08;;;;;;;26.67;22.90;;;16.50;99.90;;;;;;5091365;28;20047;-67
2021/08/20 06:48:34;;;;;;;29.92;23.83;;;16.50;99.90;;;;;;5093542;27;20477;-67
2021/08/20 06:50:59;;;;;;;28.27;24.05;;;16.50;99.90;;;;;;5095257;27;20038;-67
2021/08/20 06:53:25;;;;;;;26.55;22.90;;;16.50;99.90;;;;;;5097227;28;20048;-67
2021/08/20 06:55:51;;;;;;;27.38;23.98;;;16.50;99.90;;;;;;5097213;28;20130;-67
2021/08/20 06:58:16;;;;;;;31.15;24.02;;;16.60;99.90;;;;;;5095587;28;20059;-67
2021/08/20 07:00:42;;;;;;;29.02;24.48;;;16.60;99.90;;;;;;5094707;28;20055;-67
2021/08/20 07:03:08;;;;;;;27.70;23.23;;;16.70;99.90;;;;;;5096401;28;20043;-67
2021/08/20 07:05:36;;;;;;;30.52;25.35;;;16.80;99.90;;;;;;5096909;28;20048;-67
2021/08/20 07:08:08;;;;;;;28.90;25.80;;;16.90;99.90;;;;;;5092650;28;20492;-67
2021/08/20 07:10:34;;;;;;;28.23;25.17;;;17.10;99.90;;;;;;5095337;28;20039;-67
2021/08/20 07:13:01;;;;;;;27.88;24.92;;;17.30;99.90;;;;;;5094119;28;20066;-67
2021/08/20 07:15:26;;;;;;;26.13;23.35;;;17.40;99.90;;;;;;5093937;28;20067;-67
2021/08/20 07:17:52;;;;;;;28.35;23.75;;;17.50;99.90;;;;;;5094779;28;20046;-67
2021/08/20 07:20:18;;;;;;;29.80;26.27;;;17.60;99.90;;;;;;5095607;28;20050;-67
2021/08/20 07:22:44;;;;;;;30.85;26.42;;;17.70;99.90;;;;;;5097084;28;20078;-67
2021/08/20 07:25:10;;;;;;;27.48;24.60;;;17.60;99.90;;;;;;5097501;28;20040;-67
2021/08/20 07:27:36;;;;;;;31.73;25.05;;;17.70;99.90;;;;;;5095169;28;20125;-67
2021/08/20 07:30:02;;;;;;;28.30;25.33;;;17.70;99.90;;;;;;5094730;28;20081;-67
2021/08/20 07:32:28;;;;;;;29.67;26.38;;;17.70;99.90;;;;;;5095513;28;20524;-67
2021/08/20 07:34:53;;;;;;;33.28;27.60;;;17.70;99.90;;;;;;5092596;28;20165;-67
2021/08/20 07:37:19;;;;;;;29.10;25.15;;;17.60;99.90;;;;;;5096160;28;20080;-67
2021/08/20 07:39:45;;;;;;;32.63;26.60;;;17.60;99.90;;;;;;5094975;28;20040;-67
2021/08/20 07:42:11;;;;;;;29.60;26.40;;;17.60;99.90;;;;;;5094120;28;20797;-67
2021/08/20 07:44:36;;;;;;;31.42;27.95;;;17.60;99.90;;;;;;5097453;28;20499;-67
2021/08/20 07:47:03;;;;;;;35.58;29.45;;;17.70;99.90;;;;;;5098228;28;20466;-67
2021/08/20 07:49:31;;;;;;;32.70;29.30;;;17.60;99.90;;;;;;5099645;28;20046;-67
2021/08/20 07:51:58;;;;;;;33.35;29.73;;;17.70;99.90;;;;;;5099570;28;20040;-67
2021/08/20 07:54:24;;;;;;;36.05;29.52;;;17.60;99.90;;;;;;5100571;27;20043;-67
2021/08/20 07:56:50;;;;;;;39.58;31.42;;;17.70;99.90;;;;;;5097779;28;20047;-67
2021/08/20 07:59:16;;;;;;;35.60;30.15;;;17.70;99.90;;;;;;5100697;28;20040;-67
2021/08/20 08:01:41;;;;;;;33.90;29.30;;;17.70;99.90;;;;;;5098057;28;20036;-67
2021/08/20 08:04:07;;;;;;;32.90;29.48;;;17.80;99.90;;;;;;5098293;28;20051;-67
2021/08/20 08:06:33;;;;;;;35.20;29.52;;;17.80;99.90;;;;;;5097792;28;20032;-67
2021/08/20 08:08:58;;;;;;;34.30;29.77;;;17.80;99.90;;;;;;5097779;28;20043;-67
2021/08/20 08:11:24;;;;;;;33.45;30.05;;;17.80;99.90;;;;;;5100268;27;20062;-67
2021/08/20 08:13:50;;;;;;;33.45;29.77;;;17.90;99.90;;;;;;5100191;28;20047;-67
2021/08/20 08:16:16;;;;;;;37.85;30.00;;;17.80;99.90;;;;;;5097608;28;20035;-67
2021/08/20 08:18:42;;;;;;;32.70;29.15;;;17.90;99.90;;;;;;5097832;28;20040;-67
2021/08/20 08:21:07;;;;;;;32.97;28.70;;;17.90;99.90;;;;;;5102541;28;20062;-67
2021/08/20 08:23:33;;;;;;;33.00;29.45;;;17.80;99.90;;;;;;5103932;28;20032;-67
2021/08/20 08:25:59;;;;;;;33.55;29.25;;;17.90;99.90;;;;;;5110719;27;20039;-67
2021/08/20 08:28:24;;;;;;;34.95;30.92;;;17.90;99.90;;;;;;5110252;28;20042;-67
2021/08/20 08:30:50;;;;;;;33.03;28.83;;;17.90;99.90;;;;;;5106031;28;20435;-67
2021/08/20 08:33:18;;;;;;;36.90;30.05;;;17.90;99.90;;;;;;5103623;28;20044;-67
2021/08/20 08:35:45;;;;;;;34.08;29.75;;;17.90;99.90;;;;;;5106282;28;20047;-67
2021/08/20 08:38:13;;;;;;;35.80;29.05;;;18.00;99.90;;;;;;5108700;28;20043;-67
2021/08/20 08:40:44;;;;;;;38.55;31.10;;;18.00;99.90;;;;;;5107010;28;20066;-67
2021/08/20 08:43:11;;;;;;;31.77;28.58;;;18.00;99.90;;;;;;5104583;28;20086;-67
2021/08/20 08:45:36;;;;;;;32.95;28.92;;;18.00;99.90;;;;;;5102939;28;20035;-67
2021/08/20 08:48:05;;;;;;;37.28;30.38;;;18.10;99.90;;;;;;5104025;28;20038;-67
2021/08/20 08:50:31;;;;;;;33.55;27.15;;;18.10;99.90;;;;;;5104149;28;20504;-67
2021/08/20 08:52:57;;;;;;;31.33;27.92;;;18.10;99.90;;;;;;5100682;28;20038;-67
2021/08/20 08:55:22;;;;;;;37.72;29.42;;;18.10;99.90;;;;;;5105845;28;20552;-67
2021/08/20 08:57:48;;;;;;;34.13;28.27;;;18.10;99.90;;;;;;5104671;28;20464;-67
2021/08/20 09:00:14;;;;;;;34.08;28.10;;;18.10;99.90;;;;;;5105943;28;20035;-67
2021/08/20 09:02:40;;;;;;;34.72;27.63;;;18.10;99.90;;;;;;5104999;28;20067;-67
2021/08/20 09:05:11;;;;;;;36.67;28.08;;;18.20;99.90;;;;;;5100350;28;20067;-67
2021/08/20 09:07:38;;;;;;;33.20;26.08;;;18.20;99.90;;;;;;5103938;28;20088;-67
2021/08/20 09:10:20;;;;;;;30.17;26.83;;;18.20;99.90;;;;;;5102782;28;20071;-67
2021/08/20 09:12:53;;;;;;;31.33;26.30;;;18.20;99.90;;;;;;5104524;28;20119;-67
2021/08/20 09:15:22;;;;;;;33.58;27.50;;;18.30;99.90;;;;;;5106168;28;20040;-67
2021/08/20 09:17:56;;;;;;;30.20;26.92;;;18.40;99.90;;;;;;5100383;28;20543;-67
2021/08/20 09:20:27;;;;;;;30.00;25.05;;;18.30;99.90;;;;;;5102791;28;20408;-67
2021/08/20 09:22:55;;;;;;;32.15;26.05;;;18.50;99.90;;;;;;5104955;28;20489;-67
2021/08/20 09:25:34;;;;;;;31.25;26.98;;;18.70;99.90;;;;;;5108873;28;20052;-67
2021/08/20 09:28:17;;;;;;;28.23;25.25;;;18.80;99.90;;;;;;5099844;28;20050;-67
2021/08/20 09:31:10;;;;;;;30.27;25.48;;;19.00;99.90;;;;;;5097285;28;20036;-67
2021/08/20 09:33:45;;;;;;;26.65;22.98;;;19.20;99.90;;;;;;5102745;28;20091;-67
2021/08/20 09:36:19;;;;;;;27.00;24.20;;;19.30;99.90;;;;;;5105265;28;20082;-67
2021/08/20 09:38:56;;;;;;;24.80;21.20;;;19.30;99.90;;;;;;5067708;28;1022420;-67
2021/08/20 09:41:31;;;;;;;24.00;21.52;;;19.30;99.90;;;;;;5105284;28;20044;-67
2021/08/20 09:44:01;;;;;;;28.88;22.05;;;19.40;99.90;;;;;;5103093;28;20047;-67
2021/08/20 09:46:45;;;;;;;27.73;22.17;;;19.50;99.90;;;;;;5103855;28;20442;-67
2021/08/20 09:49:13;;;;;;;24.30;20.58;;;19.60;99.90;;;;;;5103832;28;20031;-67
2021/08/20 09:51:49;;;;;;;21.80;19.33;;;19.60;99.90;;;;;;5100974;28;20055;-67
2021/08/20 09:54:26;;;;;;;20.83;18.50;;;19.80;99.90;;;;;;5104586;27;20182;-67
2021/08/20 09:56:52;;;;;;;21.25;18.50;;;19.90;99.90;;;;;;5108500;27;20043;-67
2021/08/20 09:59:19;;;;;;;21.73;16.85;;;20.10;99.90;;;;;;5102761;28;20043;-67
2021/08/20 10:01:47;;;;;;;20.02;16.05;;;20.20;99.90;;;;;;5102400;28;20406;-67
2021/08/20 10:04:17;;;;;;;21.42;17.88;;;20.30;99.90;;;;;;5101789;28;20051;-67
2021/08/20 10:06:47;;;;;;;21.85;16.40;;;20.40;99.90;;;;;;5106736;28;20389;-67
2021/08/20 10:09:19;;;;;;;18.60;15.32;;;20.60;99.90;;;;;;5105167;28;20047;-67
2021/08/20 10:11:51;;;;;;;16.05;13.30;;;20.60;99.90;;;;;;5107407;27;20040;-67
2021/08/20 10:14:20;;;;;;;18.08;14.68;;;20.70;99.90;;;;;;5099662;28;20040;-67
2021/08/20 10:16:46;;;;;;;18.75;15.60;;;20.80;99.90;;;;;;5102191;27;20047;-67
2021/08/20 10:19:12;;;;;;;21.77;13.82;;;20.80;99.90;;;;;;5102070;28;20052;-67
2021/08/20 10:21:40;;;;;;;15.45;13.63;;;20.80;99.90;;;;;;5104071;28;20048;-67
2021/08/20 10:24:08;;;;;;;17.08;12.93;;;20.90;99.90;;;;;;5105280;28;20121;-67
2021/08/20 10:26:39;;;;;;;20.08;14.20;;;20.80;99.90;;;;;;5103153;28;20385;-67
2021/08/20 10:29:06;;;;;;;12.98;11.68;;;20.80;99.90;;;;;;5102397;28;20044;-67
2021/08/20 10:31:34;;;;;;;14.25;12.02;;;20.80;99.90;;;;;;5104059;27;20047;-67
2021/08/20 10:33:59;;;;;;;15.63;14.02;;;20.70;99.90;;;;;;5102265;28;20053;-67
2021/08/20 10:36:36;;;;;;;18.65;16.08;;;20.50;99.90;;;;;;5103436;27;20107;-67
2021/08/20 10:39:02;;;;;;;17.20;14.60;;;20.30;99.90;;;;;;5100450;28;20551;-67
2021/08/20 10:41:28;;;;;;;17.50;14.60;;;20.20;99.90;;;;;;5105334;28;20036;-67
2021/08/20 10:44:04;;;;;;;20.48;16.30;;;20.10;99.90;;;;;;5105229;28;20093;-67
2021/08/20 10:46:33;;;;;;;17.75;15.18;;;20.10;99.90;;;;;;5099259;28;20427;-67
2021/08/20 10:49:14;;;;;;;17.50;15.52;;;20.10;99.90;;;;;;5099807;28;20511;-67
2021/08/20 10:51:49;;;;;;;17.75;15.73;;;20.20;99.90;;;;;;5096837;28;20525;-67
2021/08/20 10:54:16;;;;;;;28.70;16.00;;;20.30;99.90;;;;;;5106848;28;20051;-67
2021/08/20 10:56:41;;;;;;;18.02;15.05;;;20.50;99.90;;;;;;5101549;28;20047;-67
2021/08/20 10:59:07;;;;;;;15.48;13.65;;;20.80;99.90;;;;;;5105582;28;20044;-67
2021/08/20 11:01:32;;;;;;;9.27;8.18;;;20.90;99.90;;;;;;5099776;28;20494;-67
2021/08/20 11:03:59;;;;;;;9.25;7.78;;;21.00;99.90;;;;;;5099622;28;20031;-67
2021/08/20 11:06:47;;;;;;;14.05;7.97;;;21.10;99.90;;;;;;5102592;28;20040;-67
2021/08/20 11:09:26;;;;;;;14.48;10.93;;;21.20;99.90;;;;;;5102232;27;20118;-67
2021/08/20 11:11:52;;;;;;;13.75;10.93;;;21.20;99.90;;;;;;5067256;28;20048;-67
2021/08/20 11:14:25;;;;;;;18.33;10.27;;;21.30;99.90;;;;;;5100876;28;20032;-67
2021/08/20 11:16:52;;;;;;;13.02;9.13;;;21.40;99.90;;;;;;5095629;28;20565;-67
2021/08/20 11:19:47;;;;;;;13.80;9.93;;;21.50;99.90;;;;;;5096005;28;20043;-67
2021/08/20 11:22:23;;;;;;;13.32;9.75;;;21.80;99.90;;;;;;5099610;28;20075;-67
2021/08/20 11:25:20;;;;;;;12.75;8.70;;;21.90;99.90;;;;;;5099233;28;20040;-67
2021/08/20 11:27:57;;;;;;;9.15;7.95;;;22.40;99.90;;;;;;5093380;28;20040;-67
2021/08/20 11:30:22;;;;;;;10.77;8.02;;;22.70;99.90;;;;;;5098143;28;20024;-68
2021/08/20 11:32:48;;;;;;;10.10;8.02;;;23.00;99.90;;;;;;5094179;27;20075;-67
2021/08/20 11:35:29;;;;;;;9.43;6.93;;;23.10;99.90;;;;;;5099369;28;20060;-67
2021/08/20 11:37:55;;;;;;;7.93;6.25;;;22.90;99.90;;;;;;5099661;27;20048;-67
2021/08/20 11:40:20;;;;;;;5.88;5.28;;;22.80;99.90;;;;;;5102214;28;20718;-67
2021/08/20 11:43:13;;;;;;;7.22;5.63;;;22.60;99.90;;;;;;5100313;27;20108;-67
2021/08/20 11:45:38;;;;;;;12.63;6.20;;;22.40;99.90;;;;;;5099755;28;20097;-68
2021/08/20 11:48:05;;;;;;;12.82;7.05;;;22.20;99.90;;;;;;5087794;27;20473;-67
2021/08/20 11:50:33;;;;;;;9.30;5.70;;;22.00;99.90;;;;;;5102426;28;20032;-67
2021/08/20 11:52:59;;;;;;;8.38;5.65;;;21.90;99.90;;;;;;5104805;27;20078;-66
2021/08/20 11:55:29;;;;;;;9.70;4.03;;;21.70;99.90;;;;;;5126341;27;20091;-67
2021/08/20 11:57:55;;;;;;;6.80;4.25;;;21.60;99.90;;;;;;5098985;27;20105;-67
2021/08/20 12:00:34;;;;;;;8.82;3.80;;;21.50;99.90;;;;;;5098399;28;20044;-67
2021/08/20 12:03:07;;;;;;;6.10;3.47;;;21.50;99.90;;;;;;5099294;27;20054;-67
2021/08/20 12:05:34;;;;;;;4.18;3.20;;;21.50;99.90;;;;;;5097641;28;20047;-68
2021/08/20 12:08:16;;;;;;;5.05;3.40;;;21.60;99.90;;;;;;5099143;27;20613;-68
2021/08/20 12:10:44;;;;;;;6.75;4.20;;;21.60;99.90;;;;;;5097494;28;20036;-67
2021/08/20 12:13:13;;;;;;;5.18;3.35;;;21.70;99.90;;;;;;5098376;27;20117;-67
2021/08/20 12:15:39;;;;;;;4.82;3.13;;;21.70;99.90;;;;;;5098169;28;20032;-68
2021/08/20 12:18:26;;;;;;;4.53;3.05;;;21.60;99.90;;;;;;5095574;27;20136;-66
2021/08/20 12:20:55;;;;;;;3.90;3.47;;;21.60;99.90;;;;;;5095463;28;20050;-67
2021/08/20 12:23:21;;;;;;;10.90;5.05;;;21.50;99.90;;;;;;5096172;27;20401;-67
2021/08/20 12:25:47;;;;;;;6.18;4.88;;;21.40;99.90;;;;;;5101846;28;20666;-68
2021/08/20 12:28:14;;;;;;;7.53;4.60;;;21.30;99.90;;;;;;5106070;27;20127;-67
2021/08/20 12:30:41;;;;;;;8.77;4.72;;;21.20;99.90;;;;;;5098595;28;20067;-67